sensor_id;sensor_type;location;lat;lon;timestamp;temperature;humidity
3986;DHT22;2007;48.750;9.278;2022-12-29T00:00:01;17.30;52.80
3986;DHT22;2007;48.750;9.278;2022-12-29T00:02:29;17.30;52.80
3986;DHT22;2007;48.750;9.278;2022-12-29T00:04:57;17.30;52.80
3986;DHT22;2007;48.750;9.278;2022-12-29T00:07:25;17.30;52.80
3986;DHT22;2007;48.750;9.278;2022-12-29T00:09:53;17.30;52.80
3986;DHT22;2007;48.750;9.278;2022-12-29T00:12:22;17.30;52.80
3986;DHT22;2007;48.750;9.278;2022-12-29T00:14:50;17.30;52.80
3986;DHT22;2007;48.750;9.278;2022-12-29T00:17:36;17.30;52.80
3986;DHT22;2007;48.750;9.278;2022-12-29T00:20:04;17.30;52.80
3986;DHT22;2007;48.750;9.278;2022-12-29T00:22:50;17.30;52.80
3986;DHT22;2007;48.750;9.278;2022-12-29T00:25:36;17.30;52.80
3986;DHT22;2007;48.750;9.278;2022-12-29T00:28:22;17.30;52.80
3986;DHT22;2007;48.750;9.278;2022-12-29T00:31:12;17.30;52.70
3986;DHT22;2007;48.750;9.278;2022-12-29T00:33:56;17.40;52.80
3986;DHT22;2007;48.750;9.278;2022-12-29T00:36:43;17.40;52.80
3986;DHT22;2007;48.750;9.278;2022-12-29T00:39:14;17.30;52.80
3986;DHT22;2007;48.750;9.278;2022-12-29T00:42:03;17.30;52.80
3986;DHT22;2007;48.750;9.278;2022-12-29T00:45:01;17.40;52.80
3986;DHT22;2007;48.750;9.278;2022-12-29T00:47:29;17.40;52.80
3986;DHT22;2007;48.750;9.278;2022-12-29T00:49:57;17.40;52.80
3986;DHT22;2007;48.750;9.278;2022-12-29T00:52:24;17.30;52.70
3986;DHT22;2007;48.750;9.278;2022-12-29T00:54:52;17.40;52.80
3986;DHT22;2007;48.750;9.278;2022-12-29T00:57:20;17.40;52.80
3986;DHT22;2007;48.750;9.278;2022-12-29T00:59:47;17.40;52.80
3986;DHT22;2007;48.750;9.278;2022-12-29T01:02:17;17.40;52.80
3986;DHT22;2007;48.750;9.278;2022-12-29T01:04:45;17.30;52.70
3986;DHT22;2007;48.750;9.278;2022-12-29T01:07:13;17.40;52.80
3986;DHT22;2007;48.750;9.278;2022-12-29T01:09:41;17.40;52.70
3986;DHT22;2007;48.750;9.278;2022-12-29T01:12:26;17.40;52.70
3986;DHT22;2007;48.750;9.278;2022-12-29T01:15:13;17.40;52.70
3986;DHT22;2007;48.750;9.278;2022-12-29T01:17:42;17.40;52.70
3986;DHT22;2007;48.750;9.278;2022-12-29T01:20:11;17.40;52.70
3986;DHT22;2007;48.750;9.278;2022-12-29T01:22:39;17.40;52.70
3986;DHT22;2007;48.750;9.278;2022-12-29T01:25:09;17.40;52.80
3986;DHT22;2007;48.750;9.278;2022-12-29T01:27:36;17.40;52.80
3986;DHT22;2007;48.750;9.278;2022-12-29T01:30:05;17.40;52.70
3986;DHT22;2007;48.750;9.278;2022-12-29T01:32:33;17.40;52.70
3986;DHT22;2007;48.750;9.278;2022-12-29T01:35:03;17.40;52.80
3986;DHT22;2007;48.750;9.278;2022-12-29T01:37:31;17.40;52.70
3986;DHT22;2007;48.750;9.278;2022-12-29T01:39:59;17.40;52.70
3986;DHT22;2007;48.750;9.278;2022-12-29T01:42:27;17.40;52.70
3986;DHT22;2007;48.750;9.278;2022-12-29T01:44:55;17.40;52.70
3986;DHT22;2007;48.750;9.278;2022-12-29T01:47:34;17.40;52.70
3986;DHT22;2007;48.750;9.278;2022-12-29T01:50:08;17.40;52.70
3986;DHT22;2007;48.750;9.278;2022-12-29T01:52:40;17.40;52.70
3986;DHT22;2007;48.750;9.278;2022-12-29T01:55:10;17.40;52.70
3986;DHT22;2007;48.750;9.278;2022-12-29T01:57:44;17.40;52.70
3986;DHT22;2007;48.750;9.278;2022-12-29T02:00:14;17.40;52.70
3986;DHT22;2007;48.750;9.278;2022-12-29T02:02:46;17.40;52.70
3986;DHT22;2007;48.750;9.278;2022-12-29T02:05:23;17.40;52.70
3986;DHT22;2007;48.750;9.278;2022-12-29T02:07:53;17.40;52.70
3986;DHT22;2007;48.750;9.278;2022-12-29T02:10:23;17.40;52.70
3986;DHT22;2007;48.750;9.278;2022-12-29T02:12:52;17.40;52.70
3986;DHT22;2007;48.750;9.278;2022-12-29T02:15:25;17.40;52.70
3986;DHT22;2007;48.750;9.278;2022-12-29T02:18:09;17.40;52.70
3986;DHT22;2007;48.750;9.278;2022-12-29T02:21:22;17.40;52.70
3986;DHT22;2007;48.750;9.278;2022-12-29T02:24:36;17.40;52.70
3986;DHT22;2007;48.750;9.278;2022-12-29T02:30:46;17.40;52.60
3986;DHT22;2007;48.750;9.278;2022-12-29T02:33:23;17.40;52.70
3986;DHT22;2007;48.750;9.278;2022-12-29T02:36:01;17.40;52.70
3986;DHT22;2007;48.750;9.278;2022-12-29T02:38:46;17.40;52.70
3986;DHT22;2007;48.750;9.278;2022-12-29T02:41:19;17.40;52.70
3986;DHT22;2007;48.750;9.278;2022-12-29T02:43:54;17.40;52.70
3986;DHT22;2007;48.750;9.278;2022-12-29T02:46:31;17.40;52.70
3986;DHT22;2007;48.750;9.278;2022-12-29T02:49:06;17.40;52.70
3986;DHT22;2007;48.750;9.278;2022-12-29T02:51:41;17.40;52.60
3986;DHT22;2007;48.750;9.278;2022-12-29T02:54:10;17.40;52.60
3986;DHT22;2007;48.750;9.278;2022-12-29T02:56:55;17.40;52.60
3986;DHT22;2007;48.750;9.278;2022-12-29T02:59:23;17.40;52.70
3986;DHT22;2007;48.750;9.278;2022-12-29T03:02:14;17.40;52.60
3986;DHT22;2007;48.750;9.278;2022-12-29T03:05:05;17.40;52.60
3986;DHT22;2007;48.750;9.278;2022-12-29T03:07:45;17.50;52.70
3986;DHT22;2007;48.750;9.278;2022-12-29T03:10:20;17.40;52.60
3986;DHT22;2007;48.750;9.278;2022-12-29T03:12:56;17.50;52.70
3986;DHT22;2007;48.750;9.278;2022-12-29T03:15:53;17.40;52.60
3986;DHT22;2007;48.750;9.278;2022-12-29T03:18:38;17.40;52.70
3986;DHT22;2007;48.750;9.278;2022-12-29T03:21:12;17.40;52.60
3986;DHT22;2007;48.750;9.278;2022-12-29T03:23:45;17.40;52.70
3986;DHT22;2007;48.750;9.278;2022-12-29T03:26:16;17.40;52.60
3986;DHT22;2007;48.750;9.278;2022-12-29T03:28:47;17.50;52.70
3986;DHT22;2007;48.750;9.278;2022-12-29T03:31:19;17.40;52.60
3986;DHT22;2007;48.750;9.278;2022-12-29T03:33:50;17.40;52.70
3986;DHT22;2007;48.750;9.278;2022-12-29T03:36:24;17.50;52.70
3986;DHT22;2007;48.750;9.278;2022-12-29T03:38:59;17.50;52.70
3986;DHT22;2007;48.750;9.278;2022-12-29T03:41:30;17.50;52.70
3986;DHT22;2007;48.750;9.278;2022-12-29T03:43:59;17.50;52.80
3986;DHT22;2007;48.750;9.278;2022-12-29T03:46:27;17.50;52.80
3986;DHT22;2007;48.750;9.278;2022-12-29T03:48:56;17.50;52.80
3986;DHT22;2007;48.750;9.278;2022-12-29T03:51:24;17.50;52.80
3986;DHT22;2007;48.750;9.278;2022-12-29T03:53:52;17.40;52.70
3986;DHT22;2007;48.750;9.278;2022-12-29T03:56:20;17.50;52.80
3986;DHT22;2007;48.750;9.278;2022-12-29T03:58:48;17.50;52.80
3986;DHT22;2007;48.750;9.278;2022-12-29T04:01:16;17.50;52.80
3986;DHT22;2007;48.750;9.278;2022-12-29T04:03:44;17.50;52.80
3986;DHT22;2007;48.750;9.278;2022-12-29T04:06:13;17.50;52.80
3986;DHT22;2007;48.750;9.278;2022-12-29T04:08:41;17.50;52.80
3986;DHT22;2007;48.750;9.278;2022-12-29T04:11:09;17.50;52.80
3986;DHT22;2007;48.750;9.278;2022-12-29T04:13:37;17.50;52.80
3986;DHT22;2007;48.750;9.278;2022-12-29T04:16:07;17.50;52.80
3986;DHT22;2007;48.750;9.278;2022-12-29T04:18:35;17.50;52.80
3986;DHT22;2007;48.750;9.278;2022-12-29T04:21:03;17.50;52.80
3986;DHT22;2007;48.750;9.278;2022-12-29T04:23:36;17.50;53.50
3986;DHT22;2007;48.750;9.278;2022-12-29T04:26:05;17.50;52.80
3986;DHT22;2007;48.750;9.278;2022-12-29T04:28:34;17.50;52.80
3986;DHT22;2007;48.750;9.278;2022-12-29T04:31:02;17.50;52.80
3986;DHT22;2007;48.750;9.278;2022-12-29T04:33:30;17.50;52.80
3986;DHT22;2007;48.750;9.278;2022-12-29T04:35:58;17.50;52.80
3986;DHT22;2007;48.750;9.278;2022-12-29T04:38:26;17.50;52.80
3986;DHT22;2007;48.750;9.278;2022-12-29T04:40:58;17.50;52.80
3986;DHT22;2007;48.750;9.278;2022-12-29T04:43:26;17.50;52.90
3986;DHT22;2007;48.750;9.278;2022-12-29T04:45:54;17.50;52.80
3986;DHT22;2007;48.750;9.278;2022-12-29T04:48:22;17.50;52.80
3986;DHT22;2007;48.750;9.278;2022-12-29T04:50:50;17.50;52.80
3986;DHT22;2007;48.750;9.278;2022-12-29T04:53:18;17.50;52.80
3986;DHT22;2007;48.750;9.278;2022-12-29T04:55:48;17.50;52.80
3986;DHT22;2007;48.750;9.278;2022-12-29T04:58:18;17.50;52.90
3986;DHT22;2007;48.750;9.278;2022-12-29T05:00:49;17.50;52.90
3986;DHT22;2007;48.750;9.278;2022-12-29T05:03:18;17.50;52.80
3986;DHT22;2007;48.750;9.278;2022-12-29T05:05:46;17.50;52.90
3986;DHT22;2007;48.750;9.278;2022-12-29T05:08:14;17.50;52.80
3986;DHT22;2007;48.750;9.278;2022-12-29T05:10:44;17.50;52.80
3986;DHT22;2007;48.750;9.278;2022-12-29T05:13:12;17.50;52.90
3986;DHT22;2007;48.750;9.278;2022-12-29T05:15:47;17.50;52.90
3986;DHT22;2007;48.750;9.278;2022-12-29T05:18:15;17.50;52.90
3986;DHT22;2007;48.750;9.278;2022-12-29T05:20:44;17.50;52.90
3986;DHT22;2007;48.750;9.278;2022-12-29T05:23:12;17.50;52.90
3986;DHT22;2007;48.750;9.278;2022-12-29T05:25:40;17.50;52.90
3986;DHT22;2007;48.750;9.278;2022-12-29T05:28:08;17.50;52.90
3986;DHT22;2007;48.750;9.278;2022-12-29T05:30:35;17.50;52.90
3986;DHT22;2007;48.750;9.278;2022-12-29T05:33:05;17.50;52.90
3986;DHT22;2007;48.750;9.278;2022-12-29T05:35:33;17.50;52.90
3986;DHT22;2007;48.750;9.278;2022-12-29T05:38:01;17.50;52.90
3986;DHT22;2007;48.750;9.278;2022-12-29T05:40:29;17.50;52.90
3986;DHT22;2007;48.750;9.278;2022-12-29T05:42:57;17.50;52.90
3986;DHT22;2007;48.750;9.278;2022-12-29T05:45:25;17.50;52.90
3986;DHT22;2007;48.750;9.278;2022-12-29T05:47:53;17.50;52.90
3986;DHT22;2007;48.750;9.278;2022-12-29T05:50:22;17.50;52.90
3986;DHT22;2007;48.750;9.278;2022-12-29T05:52:50;17.50;52.90
3986;DHT22;2007;48.750;9.278;2022-12-29T05:55:18;17.50;52.90
3986;DHT22;2007;48.750;9.278;2022-12-29T05:57:46;17.50;52.90
3986;DHT22;2007;48.750;9.278;2022-12-29T06:00:15;17.50;52.90
3986;DHT22;2007;48.750;9.278;2022-12-29T06:02:43;17.50;52.90
3986;DHT22;2007;48.750;9.278;2022-12-29T06:05:11;17.50;52.90
3986;DHT22;2007;48.750;9.278;2022-12-29T06:07:40;17.50;52.90
3986;DHT22;2007;48.750;9.278;2022-12-29T06:10:08;17.50;52.90
3986;DHT22;2007;48.750;9.278;2022-12-29T06:12:36;17.50;52.90
3986;DHT22;2007;48.750;9.278;2022-12-29T06:15:05;17.50;52.90
3986;DHT22;2007;48.750;9.278;2022-12-29T06:17:33;17.50;52.90
3986;DHT22;2007;48.750;9.278;2022-12-29T06:20:02;17.50;52.90
3986;DHT22;2007;48.750;9.278;2022-12-29T06:22:30;17.50;52.90
3986;DHT22;2007;48.750;9.278;2022-12-29T06:24:59;17.50;52.90
3986;DHT22;2007;48.750;9.278;2022-12-29T06:27:31;17.50;52.90
3986;DHT22;2007;48.750;9.278;2022-12-29T06:29:59;17.50;52.90
3986;DHT22;2007;48.750;9.278;2022-12-29T06:32:27;17.50;52.90
3986;DHT22;2007;48.750;9.278;2022-12-29T06:34:55;17.50;52.90
3986;DHT22;2007;48.750;9.278;2022-12-29T06:37:23;17.50;52.90
3986;DHT22;2007;48.750;9.278;2022-12-29T06:39:51;17.50;52.90
3986;DHT22;2007;48.750;9.278;2022-12-29T06:42:20;17.50;52.90
3986;DHT22;2007;48.750;9.278;2022-12-29T06:44:49;17.50;52.90
3986;DHT22;2007;48.750;9.278;2022-12-29T06:47:16;17.50;52.90
3986;DHT22;2007;48.750;9.278;2022-12-29T06:49:45;17.50;52.90
3986;DHT22;2007;48.750;9.278;2022-12-29T06:52:13;17.50;52.90
3986;DHT22;2007;48.750;9.278;2022-12-29T06:54:41;17.50;52.90
3986;DHT22;2007;48.750;9.278;2022-12-29T06:57:09;17.50;52.90
3986;DHT22;2007;48.750;9.278;2022-12-29T06:59:38;17.50;52.90
3986;DHT22;2007;48.750;9.278;2022-12-29T07:02:06;17.50;52.90
3986;DHT22;2007;48.750;9.278;2022-12-29T07:04:34;17.50;52.90
3986;DHT22;2007;48.750;9.278;2022-12-29T07:07:02;17.50;52.90
3986;DHT22;2007;48.750;9.278;2022-12-29T07:09:30;17.50;52.90
3986;DHT22;2007;48.750;9.278;2022-12-29T07:11:58;17.50;52.90
3986;DHT22;2007;48.750;9.278;2022-12-29T07:14:26;17.50;52.90
3986;DHT22;2007;48.750;9.278;2022-12-29T07:16:55;17.50;52.90
3986;DHT22;2007;48.750;9.278;2022-12-29T07:19:23;17.50;52.90
3986;DHT22;2007;48.750;9.278;2022-12-29T07:21:51;17.50;52.90
3986;DHT22;2007;48.750;9.278;2022-12-29T07:24:19;17.50;52.90
3986;DHT22;2007;48.750;9.278;2022-12-29T07:26:47;17.50;52.90
3986;DHT22;2007;48.750;9.278;2022-12-29T07:29:15;17.50;52.90
3986;DHT22;2007;48.750;9.278;2022-12-29T07:31:43;17.50;52.90
3986;DHT22;2007;48.750;9.278;2022-12-29T07:34:12;17.50;52.90
3986;DHT22;2007;48.750;9.278;2022-12-29T07:36:40;17.50;52.90
3986;DHT22;2007;48.750;9.278;2022-12-29T07:39:08;17.50;53.60
3986;DHT22;2007;48.750;9.278;2022-12-29T07:41:36;17.50;52.90
3986;DHT22;2007;48.750;9.278;2022-12-29T07:44:04;17.50;52.90
3986;DHT22;2007;48.750;9.278;2022-12-29T07:46:32;17.50;52.90
3986;DHT22;2007;48.750;9.278;2022-12-29T07:49:22;17.50;52.90
3986;DHT22;2007;48.750;9.278;2022-12-29T07:51:49;17.50;52.90
3986;DHT22;2007;48.750;9.278;2022-12-29T07:54:17;17.50;52.90
3986;DHT22;2007;48.750;9.278;2022-12-29T07:56:45;17.50;53.00
3986;DHT22;2007;48.750;9.278;2022-12-29T07:59:13;17.50;52.90
3986;DHT22;2007;48.750;9.278;2022-12-29T08:01:42;17.60;53.10
3986;DHT22;2007;48.750;9.278;2022-12-29T08:04:10;17.50;53.00
3986;DHT22;2007;48.750;9.278;2022-12-29T08:06:39;17.50;52.90
3986;DHT22;2007;48.750;9.278;2022-12-29T08:09:08;17.50;53.00
3986;DHT22;2007;48.750;9.278;2022-12-29T08:11:43;17.50;52.90
3986;DHT22;2007;48.750;9.278;2022-12-29T08:14:11;17.60;53.00
3986;DHT22;2007;48.750;9.278;2022-12-29T08:16:39;17.50;53.00
3986;DHT22;2007;48.750;9.278;2022-12-29T08:19:09;17.50;53.00
3986;DHT22;2007;48.750;9.278;2022-12-29T08:21:38;17.50;53.00
3986;DHT22;2007;48.750;9.278;2022-12-29T08:24:08;17.50;53.00
3986;DHT22;2007;48.750;9.278;2022-12-29T08:26:36;17.50;53.00
3986;DHT22;2007;48.750;9.278;2022-12-29T08:29:04;17.50;53.00
3986;DHT22;2007;48.750;9.278;2022-12-29T08:31:32;17.60;53.10
3986;DHT22;2007;48.750;9.278;2022-12-29T08:34:00;17.60;53.10
3986;DHT22;2007;48.750;9.278;2022-12-29T08:36:29;17.50;53.00
3986;DHT22;2007;48.750;9.278;2022-12-29T08:38:59;17.50;53.00
3986;DHT22;2007;48.750;9.278;2022-12-29T08:41:26;17.50;53.00
3986;DHT22;2007;48.750;9.278;2022-12-29T08:43:54;17.60;53.10
3986;DHT22;2007;48.750;9.278;2022-12-29T08:46:22;17.60;53.10
3986;DHT22;2007;48.750;9.278;2022-12-29T08:48:50;17.60;53.10
3986;DHT22;2007;48.750;9.278;2022-12-29T08:51:18;17.50;53.00
3986;DHT22;2007;48.750;9.278;2022-12-29T08:53:50;17.60;53.10
3986;DHT22;2007;48.750;9.278;2022-12-29T08:56:20;17.60;53.10
3986;DHT22;2007;48.750;9.278;2022-12-29T08:58:50;17.60;53.10
3986;DHT22;2007;48.750;9.278;2022-12-29T09:01:18;17.60;53.10
3986;DHT22;2007;48.750;9.278;2022-12-29T09:03:47;17.60;53.10
3986;DHT22;2007;48.750;9.278;2022-12-29T09:06:35;17.60;53.10
3986;DHT22;2007;48.750;9.278;2022-12-29T09:09:06;17.60;53.10
3986;DHT22;2007;48.750;9.278;2022-12-29T09:11:35;17.60;53.10
3986;DHT22;2007;48.750;9.278;2022-12-29T09:14:04;17.60;53.10
3986;DHT22;2007;48.750;9.278;2022-12-29T09:16:32;17.60;53.80
3986;DHT22;2007;48.750;9.278;2022-12-29T09:19:00;17.60;53.10
3986;DHT22;2007;48.750;9.278;2022-12-29T09:21:28;17.60;53.10
3986;DHT22;2007;48.750;9.278;2022-12-29T09:23:56;17.50;53.00
3986;DHT22;2007;48.750;9.278;2022-12-29T09:26:24;17.60;53.10
3986;DHT22;2007;48.750;9.278;2022-12-29T09:28:53;17.60;53.10
3986;DHT22;2007;48.750;9.278;2022-12-29T09:31:21;17.60;53.10
3986;DHT22;2007;48.750;9.278;2022-12-29T09:33:49;17.60;53.10
3986;DHT22;2007;48.750;9.278;2022-12-29T09:36:17;17.60;53.10
3986;DHT22;2007;48.750;9.278;2022-12-29T09:38:45;17.60;53.10
3986;DHT22;2007;48.750;9.278;2022-12-29T09:41:18;17.60;53.10
3986;DHT22;2007;48.750;9.278;2022-12-29T09:44:01;17.60;53.10
3986;DHT22;2007;48.750;9.278;2022-12-29T09:46:34;17.60;53.10
3986;DHT22;2007;48.750;9.278;2022-12-29T09:49:11;17.60;53.10
3986;DHT22;2007;48.750;9.278;2022-12-29T09:51:47;17.60;53.70
3986;DHT22;2007;48.750;9.278;2022-12-29T09:54:37;17.60;53.10
3986;DHT22;2007;48.750;9.278;2022-12-29T09:57:16;17.60;53.10
3986;DHT22;2007;48.750;9.278;2022-12-29T09:59:50;17.60;53.10
3986;DHT22;2007;48.750;9.278;2022-12-29T10:02:27;17.60;53.10
3986;DHT22;2007;48.750;9.278;2022-12-29T10:04:57;17.60;53.10
3986;DHT22;2007;48.750;9.278;2022-12-29T10:07:31;17.60;53.10
3986;DHT22;2007;48.750;9.278;2022-12-29T10:10:09;17.60;53.10
3986;DHT22;2007;48.750;9.278;2022-12-29T10:12:54;17.60;53.10
3986;DHT22;2007;48.750;9.278;2022-12-29T10:15:42;17.60;53.10
3986;DHT22;2007;48.750;9.278;2022-12-29T10:18:22;17.60;53.10
3986;DHT22;2007;48.750;9.278;2022-12-29T10:20:58;17.60;53.10
3986;DHT22;2007;48.750;9.278;2022-12-29T10:23:31;17.60;53.10
3986;DHT22;2007;48.750;9.278;2022-12-29T10:26:01;17.60;53.10
3986;DHT22;2007;48.750;9.278;2022-12-29T10:28:35;17.60;53.10
3986;DHT22;2007;48.750;9.278;2022-12-29T10:31:08;17.60;53.20
3986;DHT22;2007;48.750;9.278;2022-12-29T10:33:40;17.60;53.10
3986;DHT22;2007;48.750;9.278;2022-12-29T10:36:16;17.60;53.10
3986;DHT22;2007;48.750;9.278;2022-12-29T10:38:58;17.60;53.10
3986;DHT22;2007;48.750;9.278;2022-12-29T10:41:32;17.60;53.10
3986;DHT22;2007;48.750;9.278;2022-12-29T10:44:02;17.60;53.10
3986;DHT22;2007;48.750;9.278;2022-12-29T10:46:35;17.60;53.10
3986;DHT22;2007;48.750;9.278;2022-12-29T10:49:04;17.60;53.10
3986;DHT22;2007;48.750;9.278;2022-12-29T10:51:36;17.60;53.20
3986;DHT22;2007;48.750;9.278;2022-12-29T10:54:11;17.60;53.10
3986;DHT22;2007;48.750;9.278;2022-12-29T10:56:44;17.60;53.10
3986;DHT22;2007;48.750;9.278;2022-12-29T10:59:19;17.60;53.10
3986;DHT22;2007;48.750;9.278;2022-12-29T11:01:58;17.60;53.10
3986;DHT22;2007;48.750;9.278;2022-12-29T11:04:46;17.60;53.10
3986;DHT22;2007;48.750;9.278;2022-12-29T11:07:19;17.60;53.10
3986;DHT22;2007;48.750;9.278;2022-12-29T11:09:53;17.60;53.20
3986;DHT22;2007;48.750;9.278;2022-12-29T11:12:23;17.60;53.10
3986;DHT22;2007;48.750;9.278;2022-12-29T11:15:11;17.60;53.20
3986;DHT22;2007;48.750;9.278;2022-12-29T11:17:48;17.60;53.10
3986;DHT22;2007;48.750;9.278;2022-12-29T11:20:28;17.60;53.20
3986;DHT22;2007;48.750;9.278;2022-12-29T11:22:56;17.60;53.10
3986;DHT22;2007;48.750;9.278;2022-12-29T11:25:24;17.60;53.10
3986;DHT22;2007;48.750;9.278;2022-12-29T11:27:56;17.60;53.20
3986;DHT22;2007;48.750;9.278;2022-12-29T11:30:26;17.60;53.10
3986;DHT22;2007;48.750;9.278;2022-12-29T11:32:56;17.60;53.10
3986;DHT22;2007;48.750;9.278;2022-12-29T11:35:34;17.60;53.20
3986;DHT22;2007;48.750;9.278;2022-12-29T11:38:03;17.60;53.10
3986;DHT22;2007;48.750;9.278;2022-12-29T11:40:32;17.60;53.20
3986;DHT22;2007;48.750;9.278;2022-12-29T11:43:05;17.60;53.20
3986;DHT22;2007;48.750;9.278;2022-12-29T11:45:35;17.60;53.20
3986;DHT22;2007;48.750;9.278;2022-12-29T11:48:09;17.60;53.20
3986;DHT22;2007;48.750;9.278;2022-12-29T11:50:41;17.60;53.20
3986;DHT22;2007;48.750;9.278;2022-12-29T11:53:17;17.60;53.20
3986;DHT22;2007;48.750;9.278;2022-12-29T11:55:53;17.60;53.20
3986;DHT22;2007;48.750;9.278;2022-12-29T11:58:28;17.60;53.10
3986;DHT22;2007;48.750;9.278;2022-12-29T12:01:01;17.60;53.10
3986;DHT22;2007;48.750;9.278;2022-12-29T12:03:35;17.60;53.20
3986;DHT22;2007;48.750;9.278;2022-12-29T12:06:07;17.60;53.10
3986;DHT22;2007;48.750;9.278;2022-12-29T12:08:39;17.60;53.10
3986;DHT22;2007;48.750;9.278;2022-12-29T12:11:12;17.60;53.20
3986;DHT22;2007;48.750;9.278;2022-12-29T12:13:46;17.60;53.10
3986;DHT22;2007;48.750;9.278;2022-12-29T12:16:20;17.60;53.20
3986;DHT22;2007;48.750;9.278;2022-12-29T12:18:54;17.60;53.20
3986;DHT22;2007;48.750;9.278;2022-12-29T12:21:25;17.60;53.20
3986;DHT22;2007;48.750;9.278;2022-12-29T12:24:10;17.60;53.20
3986;DHT22;2007;48.750;9.278;2022-12-29T12:26:49;17.60;53.20
3986;DHT22;2007;48.750;9.278;2022-12-29T12:29:25;17.60;53.20
3986;DHT22;2007;48.750;9.278;2022-12-29T12:31:57;17.60;53.20
3986;DHT22;2007;48.750;9.278;2022-12-29T12:34:32;17.60;53.20
3986;DHT22;2007;48.750;9.278;2022-12-29T12:37:25;17.60;53.20
3986;DHT22;2007;48.750;9.278;2022-12-29T12:43:02;17.60;53.20
3986;DHT22;2007;48.750;9.278;2022-12-29T12:45:45;17.60;53.20
3986;DHT22;2007;48.750;9.278;2022-12-29T12:48:28;17.60;53.80
3986;DHT22;2007;48.750;9.278;2022-12-29T12:51:06;17.60;53.20
3986;DHT22;2007;48.750;9.278;2022-12-29T12:53:59;17.60;53.20
3986;DHT22;2007;48.750;9.278;2022-12-29T12:56:43;17.60;53.20
3986;DHT22;2007;48.750;9.278;2022-12-29T12:59:28;17.60;53.20
3986;DHT22;2007;48.750;9.278;2022-12-29T13:02:02;17.60;53.20
3986;DHT22;2007;48.750;9.278;2022-12-29T13:04:52;17.60;53.20
3986;DHT22;2007;48.750;9.278;2022-12-29T13:07:32;17.60;53.20
3986;DHT22;2007;48.750;9.278;2022-12-29T13:10:26;17.60;53.20
3986;DHT22;2007;48.750;9.278;2022-12-29T13:13:13;17.60;53.20
3986;DHT22;2007;48.750;9.278;2022-12-29T13:15:49;17.60;53.20
3986;DHT22;2007;48.750;9.278;2022-12-29T13:18:25;17.60;53.20
3986;DHT22;2007;48.750;9.278;2022-12-29T13:21:00;17.60;53.20
3986;DHT22;2007;48.750;9.278;2022-12-29T13:23:36;17.60;53.20
3986;DHT22;2007;48.750;9.278;2022-12-29T13:26:14;17.60;53.20
3986;DHT22;2007;48.750;9.278;2022-12-29T13:28:51;17.60;53.20
3986;DHT22;2007;48.750;9.278;2022-12-29T13:31:30;17.60;53.20
3986;DHT22;2007;48.750;9.278;2022-12-29T13:34:06;17.60;53.20
3986;DHT22;2007;48.750;9.278;2022-12-29T13:36:42;17.70;53.30
3986;DHT22;2007;48.750;9.278;2022-12-29T13:39:16;17.60;53.20
3986;DHT22;2007;48.750;9.278;2022-12-29T13:41:49;17.70;53.30
3986;DHT22;2007;48.750;9.278;2022-12-29T13:44:22;17.70;53.30
3986;DHT22;2007;48.750;9.278;2022-12-29T13:46:51;17.70;53.30
3986;DHT22;2007;48.750;9.278;2022-12-29T13:49:22;17.70;53.30
3986;DHT22;2007;48.750;9.278;2022-12-29T13:51:53;17.70;53.30
3986;DHT22;2007;48.750;9.278;2022-12-29T13:54:30;17.70;53.30
3986;DHT22;2007;48.750;9.278;2022-12-29T13:57:08;17.70;53.30
3986;DHT22;2007;48.750;9.278;2022-12-29T13:59:43;17.70;53.30
3986;DHT22;2007;48.750;9.278;2022-12-29T14:02:25;17.70;53.30
3986;DHT22;2007;48.750;9.278;2022-12-29T14:04:56;17.70;54.00
3986;DHT22;2007;48.750;9.278;2022-12-29T14:07:25;17.70;53.30
3986;DHT22;2007;48.750;9.278;2022-12-29T14:09:56;17.70;53.50
3986;DHT22;2007;48.750;9.278;2022-12-29T14:12:31;17.70;53.30
3986;DHT22;2007;48.750;9.278;2022-12-29T14:15:05;17.70;53.30
3986;DHT22;2007;48.750;9.278;2022-12-29T14:17:35;17.70;53.30
3986;DHT22;2007;48.750;9.278;2022-12-29T14:20:06;17.60;53.20
3986;DHT22;2007;48.750;9.278;2022-12-29T14:22:56;17.70;53.30
3986;DHT22;2007;48.750;9.278;2022-12-29T14:25:57;17.70;53.30
3986;DHT22;2007;48.750;9.278;2022-12-29T14:28:26;17.70;53.30
3986;DHT22;2007;48.750;9.278;2022-12-29T14:30:56;17.70;53.30
3986;DHT22;2007;48.750;9.278;2022-12-29T14:33:26;17.70;53.30
3986;DHT22;2007;48.750;9.278;2022-12-29T14:35:55;17.70;53.30
3986;DHT22;2007;48.750;9.278;2022-12-29T14:38:30;17.70;53.30
3986;DHT22;2007;48.750;9.278;2022-12-29T14:41:26;17.70;53.30
3986;DHT22;2007;48.750;9.278;2022-12-29T14:43:58;17.70;53.30
3986;DHT22;2007;48.750;9.278;2022-12-29T14:46:46;17.70;53.30
3986;DHT22;2007;48.750;9.278;2022-12-29T14:49:17;17.70;53.30
3986;DHT22;2007;48.750;9.278;2022-12-29T14:51:47;17.70;53.30
3986;DHT22;2007;48.750;9.278;2022-12-29T14:54:34;17.70;54.00
3986;DHT22;2007;48.750;9.278;2022-12-29T14:57:15;17.70;53.30
3986;DHT22;2007;48.750;9.278;2022-12-29T14:59:47;17.70;53.40
3986;DHT22;2007;48.750;9.278;2022-12-29T15:02:20;17.70;53.40
3986;DHT22;2007;48.750;9.278;2022-12-29T15:04:51;17.70;53.30
3986;DHT22;2007;48.750;9.278;2022-12-29T15:07:21;17.70;54.00
3986;DHT22;2007;48.750;9.278;2022-12-29T15:09:54;17.70;53.30
3986;DHT22;2007;48.750;9.278;2022-12-29T15:12:33;17.70;53.40
3986;DHT22;2007;48.750;9.278;2022-12-29T15:15:17;17.70;53.30
3986;DHT22;2007;48.750;9.278;2022-12-29T15:17:45;17.70;53.30
3986;DHT22;2007;48.750;9.278;2022-12-29T15:20:21;17.70;53.30
3986;DHT22;2007;48.750;9.278;2022-12-29T15:22:51;17.70;53.30
3986;DHT22;2007;48.750;9.278;2022-12-29T15:25:20;17.70;53.30
3986;DHT22;2007;48.750;9.278;2022-12-29T15:27:50;17.70;53.30
3986;DHT22;2007;48.750;9.278;2022-12-29T15:30:19;17.70;53.30
3986;DHT22;2007;48.750;9.278;2022-12-29T15:32:49;17.70;53.40
3986;DHT22;2007;48.750;9.278;2022-12-29T15:35:27;17.70;53.30
3986;DHT22;2007;48.750;9.278;2022-12-29T15:37:56;17.70;53.30
3986;DHT22;2007;48.750;9.278;2022-12-29T15:40:27;17.70;53.30
3986;DHT22;2007;48.750;9.278;2022-12-29T15:43:20;17.70;53.30
3986;DHT22;2007;48.750;9.278;2022-12-29T15:45:51;17.70;53.30
3986;DHT22;2007;48.750;9.278;2022-12-29T15:48:23;17.70;53.40
3986;DHT22;2007;48.750;9.278;2022-12-29T15:50:52;17.70;53.40
3986;DHT22;2007;48.750;9.278;2022-12-29T15:53:22;17.70;53.40
3986;DHT22;2007;48.750;9.278;2022-12-29T15:55:57;17.70;53.40
3986;DHT22;2007;48.750;9.278;2022-12-29T15:58:31;17.70;53.30
3986;DHT22;2007;48.750;9.278;2022-12-29T16:01:17;17.70;53.40
3986;DHT22;2007;48.750;9.278;2022-12-29T16:03:46;17.70;53.40
3986;DHT22;2007;48.750;9.278;2022-12-29T16:06:33;17.70;53.40
3986;DHT22;2007;48.750;9.278;2022-12-29T16:09:03;17.70;53.40
3986;DHT22;2007;48.750;9.278;2022-12-29T16:11:34;17.70;53.30
3986;DHT22;2007;48.750;9.278;2022-12-29T16:14:07;17.70;53.40
3986;DHT22;2007;48.750;9.278;2022-12-29T16:16:38;17.70;53.40
3986;DHT22;2007;48.750;9.278;2022-12-29T16:19:13;17.70;53.40
3986;DHT22;2007;48.750;9.278;2022-12-29T16:21:42;17.70;53.40
3986;DHT22;2007;48.750;9.278;2022-12-29T16:24:14;17.70;53.40
3986;DHT22;2007;48.750;9.278;2022-12-29T16:26:48;17.70;53.40
3986;DHT22;2007;48.750;9.278;2022-12-29T16:29:19;17.80;53.50
3986;DHT22;2007;48.750;9.278;2022-12-29T16:31:51;17.80;53.50
3986;DHT22;2007;48.750;9.278;2022-12-29T16:34:24;17.70;53.40
3986;DHT22;2007;48.750;9.278;2022-12-29T16:36:57;17.80;53.50
3986;DHT22;2007;48.750;9.278;2022-12-29T16:39:31;17.80;53.50
3986;DHT22;2007;48.750;9.278;2022-12-29T16:41:59;17.70;53.40
3986;DHT22;2007;48.750;9.278;2022-12-29T16:44:29;17.80;53.50